UAL300 KSFO-PHNL
Flight info
| Callsign | UAL300 |
|---|---|
| Flight time | N/A |
| Altitude | 38000 |
| Route | GNNRR3 BEBOP R464 BARAZ/N0469F400 R464 BITTA MAGGI3 |
| Aircraft | B772/H-SDE2E3FGHIJ5LORVWXY/LB1D1 |
Departure
| Time | 2026-05-07 22:42 |
|---|---|
| Airport | San Francisco International Airport (KSFO) |
Arrival
| Time | N/A |
|---|---|
| Airport | Daniel K. Inouye International Airport (PHNL) |
| Time | Latitude | Longitude | Altitude | Speed | Heading |
|---|---|---|---|---|---|
| 2026-05-07 21:27 | 37.62128 | -122.38924 | 38 ft | 0 kts | 206° |
| 2026-05-07 22:27 | 37.62139 | -122.38917 | 38 ft | 2 kts | 205° |
| 2026-05-07 22:28 | 37.62152 | -122.38909 | 38 ft | 2 kts | 205° |
| 2026-05-07 22:28 | 37.62166 | -122.38902 | 38 ft | 2 kts | 205° |
| 2026-05-07 22:28 | 37.62180 | -122.38893 | 38 ft | 2 kts | 205° |
| 2026-05-07 22:28 | 37.62192 | -122.38886 | 38 ft | 0 kts | 206° |
| 2026-05-07 22:29 | 37.62202 | -122.38880 | 38 ft | 2 kts | 195° |
| 2026-05-07 22:29 | 37.62217 | -122.38877 | 38 ft | 2 kts | 177° |
| 2026-05-07 22:29 | 37.62231 | -122.38880 | 38 ft | 2 kts | 162° |
| 2026-05-07 22:29 | 37.62245 | -122.38888 | 37 ft | 2 kts | 146° |
| 2026-05-07 22:30 | 37.62256 | -122.38900 | 37 ft | 2 kts | 130° |
| 2026-05-07 22:30 | 37.62263 | -122.38911 | 37 ft | 0 kts | 118° |
| 2026-05-07 22:30 | 37.62264 | -122.38915 | 37 ft | 0 kts | 117° |
| 2026-05-07 22:34 | 37.62263 | -122.38911 | 37 ft | 2 kts | 116° |
| 2026-05-07 22:34 | 37.62253 | -122.38886 | 37 ft | 1 kts | 117° |
| 2026-05-07 22:34 | 37.62248 | -122.38872 | 37 ft | 2 kts | 105° |
| 2026-05-07 22:35 | 37.62257 | -122.38823 | 37 ft | 8 kts | 63° |
| 2026-05-07 22:35 | 37.62261 | -122.38744 | 36 ft | 10 kts | 108° |
| 2026-05-07 22:35 | 37.62230 | -122.38657 | 37 ft | 9 kts | 115° |
| 2026-05-07 22:35 | 37.62204 | -122.38594 | 37 ft | 7 kts | 118° |
| 2026-05-07 22:36 | 37.62177 | -122.38528 | 38 ft | 9 kts | 118° |
| 2026-05-07 22:36 | 37.62142 | -122.38444 | 38 ft | 12 kts | 118° |
| 2026-05-07 22:36 | 37.62098 | -122.38339 | 38 ft | 14 kts | 118° |
| 2026-05-07 22:36 | 37.62051 | -122.38228 | 38 ft | 14 kts | 118° |
| 2026-05-07 22:37 | 37.62005 | -122.38119 | 38 ft | 14 kts | 119° |
| 2026-05-07 22:37 | 37.61950 | -122.38003 | 38 ft | 16 kts | 129° |
| 2026-05-07 22:37 | 37.61863 | -122.37904 | 36 ft | 16 kts | 143° |
| 2026-05-07 22:37 | 37.61805 | -122.37788 | 34 ft | 15 kts | 112° |
| 2026-05-07 22:38 | 37.61766 | -122.37667 | 32 ft | 14 kts | 109° |
| 2026-05-07 22:38 | 37.61722 | -122.37530 | 27 ft | 18 kts | 116° |
| 2026-05-07 22:38 | 37.61665 | -122.37383 | 23 ft | 18 kts | 117° |
| 2026-05-07 22:38 | 37.61611 | -122.37251 | 21 ft | 15 kts | 115° |
| 2026-05-07 22:39 | 37.61560 | -122.37129 | 19 ft | 16 kts | 119° |
| 2026-05-07 22:39 | 37.61502 | -122.36994 | 19 ft | 17 kts | 119° |
| 2026-05-07 22:39 | 37.61433 | -122.36877 | 19 ft | 15 kts | 133° |
| 2026-05-07 22:39 | 37.61371 | -122.36784 | 19 ft | 12 kts | 122° |
| 2026-05-07 22:40 | 37.61328 | -122.36688 | 18 ft | 14 kts | 119° |
| 2026-05-07 22:40 | 37.61271 | -122.36555 | 18 ft | 19 kts | 116° |
| 2026-05-07 22:40 | 37.61206 | -122.36395 | 16 ft | 20 kts | 117° |
| 2026-05-07 22:40 | 37.61142 | -122.36247 | 15 ft | 18 kts | 119° |
| 2026-05-07 22:41 | 37.61086 | -122.36116 | 15 ft | 15 kts | 118° |
| 2026-05-07 22:41 | 37.61053 | -122.35998 | 15 ft | 12 kts | 89° |
| 2026-05-07 22:41 | 37.61081 | -122.35920 | 15 ft | 8 kts | 44° |
| 2026-05-07 22:41 | 37.61148 | -122.35889 | 15 ft | 14 kts | 359° |
| 2026-05-07 22:42 | 37.61259 | -122.36035 | 15 ft | 44 kts | 298° |
| 2026-05-07 22:42 | 37.61541 | -122.36719 | 19 ft | 128 kts | 298° |
| 2026-05-07 22:42 | 37.62050 | -122.37958 | 139 ft | 183 kts | 296° |
| 2026-05-07 22:42 | 37.62629 | -122.39449 | 1041 ft | 199 kts | 297° |
| 2026-05-07 22:43 | 37.63309 | -122.41019 | 2119 ft | 215 kts | 298° |
| 2026-05-07 22:43 | 37.64051 | -122.42703 | 3233 ft | 231 kts | 298° |
| 2026-05-07 22:43 | 37.64848 | -122.44499 | 4339 ft | 246 kts | 298° |
| 2026-05-07 22:43 | 37.65694 | -122.46400 | 5488 ft | 259 kts | 298° |
| 2026-05-07 22:44 | 37.66575 | -122.48375 | 6793 ft | 265 kts | 296° |
| 2026-05-07 22:44 | 37.67069 | -122.50566 | 8001 ft | 270 kts | 270° |
| 2026-05-07 22:44 | 37.66795 | -122.52902 | 9171 ft | 276 kts | 255° |
| 2026-05-07 22:44 | 37.66227 | -122.55233 | 10277 ft | 283 kts | 252° |
| 2026-05-07 22:45 | 37.65610 | -122.57577 | 11399 ft | 289 kts | 251° |
| 2026-05-07 22:45 | 37.64976 | -122.60001 | 12294 ft | 302 kts | 252° |
| 2026-05-07 22:45 | 37.64310 | -122.62568 | 13056 ft | 320 kts | 252° |
| 2026-05-07 22:45 | 37.63602 | -122.65300 | 13838 ft | 337 kts | 251° |
| 2026-05-07 22:46 | 37.62855 | -122.68182 | 14631 ft | 353 kts | 251° |
| 2026-05-07 22:46 | 37.62083 | -122.71155 | 15425 ft | 368 kts | 251° |
| 2026-05-07 22:46 | 37.61274 | -122.74262 | 16333 ft | 379 kts | 251° |
| 2026-05-07 22:46 | 37.60445 | -122.77447 | 17369 ft | 386 kts | 252° |
| 2026-05-07 22:47 | 37.59607 | -122.80661 | 18343 ft | 393 kts | 252° |
| 2026-05-07 22:47 | 37.58759 | -122.83911 | 19348 ft | 398 kts | 252° |
| 2026-05-07 22:47 | 37.57887 | -122.87251 | 20354 ft | 403 kts | 252° |
| 2026-05-07 22:47 | 37.57011 | -122.90601 | 21279 ft | 410 kts | 252° |
| 2026-05-07 22:48 | 37.56111 | -122.94038 | 21900 ft | 424 kts | 252° |
| 2026-05-07 22:48 | 37.55178 | -122.97598 | 22462 ft | 438 kts | 252° |
| 2026-05-07 22:48 | 37.54215 | -123.01265 | 23222 ft | 446 kts | 252° |
| 2026-05-07 22:48 | 37.53230 | -123.05011 | 24120 ft | 451 kts | 252° |
| 2026-05-07 22:49 | 37.52242 | -123.08765 | 25029 ft | 455 kts | 252° |
| 2026-05-07 22:49 | 37.51249 | -123.12528 | 25817 ft | 460 kts | 252° |
| 2026-05-07 22:49 | 37.50229 | -123.16390 | 26561 ft | 466 kts | 252° |
| 2026-05-07 22:49 | 37.49211 | -123.20238 | 27277 ft | 471 kts | 252° |
| 2026-05-07 22:50 | 37.48181 | -123.24126 | 27962 ft | 475 kts | 252° |
| 2026-05-07 22:50 | 37.47131 | -123.28088 | 28636 ft | 479 kts | 252° |
| 2026-05-07 22:50 | 37.46074 | -123.32067 | 29254 ft | 484 kts | 252° |
| 2026-05-07 22:50 | 37.44998 | -123.36112 | 29859 ft | 487 kts | 252° |
| 2026-05-07 22:51 | 37.43917 | -123.40170 | 30427 ft | 491 kts | 252° |
| 2026-05-07 22:51 | 37.42841 | -123.44201 | 31038 ft | 492 kts | 252° |
| 2026-05-07 22:51 | 37.41754 | -123.48270 | 31863 ft | 488 kts | 252° |
| 2026-05-07 22:51 | 37.40677 | -123.52297 | 32745 ft | 483 kts | 251° |
| 2026-05-07 22:52 | 37.39621 | -123.56238 | 33488 ft | 479 kts | 251° |
| 2026-05-07 22:52 | 37.38557 | -123.60207 | 34118 ft | 477 kts | 251° |
| 2026-05-07 22:52 | 37.37507 | -123.64115 | 34722 ft | 475 kts | 251° |
| 2026-05-07 22:52 | 37.36442 | -123.68077 | 35279 ft | 474 kts | 251° |
| 2026-05-07 22:53 | 37.35389 | -123.71984 | 35831 ft | 473 kts | 251° |
| 2026-05-07 22:53 | 37.34337 | -123.75885 | 36370 ft | 471 kts | 251° |
| 2026-05-07 22:53 | 37.33276 | -123.79809 | 36824 ft | 470 kts | 251° |
| 2026-05-07 22:53 | 37.32234 | -123.83660 | 37166 ft | 470 kts | 251° |
| 2026-05-07 22:54 | 37.31173 | -123.87577 | 37485 ft | 471 kts | 251° |
| 2026-05-07 22:54 | 37.30125 | -123.91434 | 37835 ft | 471 kts | 251° |
| 2026-05-07 22:54 | 37.29068 | -123.95325 | 38210 ft | 469 kts | 252° |
| 2026-05-07 22:54 | 37.28012 | -123.99199 | 38532 ft | 469 kts | 252° |
| 2026-05-07 22:55 | 37.26954 | -124.03081 | 38770 ft | 469 kts | 252° |
| 2026-05-07 22:55 | 37.25893 | -124.06963 | 38990 ft | 470 kts | 252° |
| 2026-05-07 22:55 | 37.24833 | -124.10841 | 39240 ft | 469 kts | 252° |
| 2026-05-07 22:55 | 37.23774 | -124.14703 | 39454 ft | 468 kts | 252° |
| 2026-05-07 22:56 | 37.22721 | -124.18542 | 39604 ft | 468 kts | 253° |
| 2026-05-07 22:56 | 37.20607 | -124.26230 | 39788 ft | 470 kts | 253° |
| 2026-05-07 22:57 | 37.18476 | -124.33957 | 40014 ft | 470 kts | 253° |
| 2026-05-07 22:57 | 37.17413 | -124.37802 | 40144 ft | 469 kts | 253° |
| 2026-05-07 22:57 | 37.16345 | -124.41660 | 40147 ft | 470 kts | 253° |
| 2026-05-07 22:58 | 37.14211 | -124.49354 | 40148 ft | 468 kts | 253° |
| 2026-05-07 22:58 | 37.12061 | -124.57079 | 40151 ft | 469 kts | 253° |
| 2026-05-07 22:59 | 37.09928 | -124.64722 | 40151 ft | 468 kts | 253° |
| 2026-05-07 22:59 | 37.07774 | -124.72418 | 40155 ft | 470 kts | 253° |
| 2026-05-07 23:00 | 37.05621 | -124.80092 | 40154 ft | 469 kts | 253° |
| 2026-05-07 23:00 | 37.03457 | -124.87781 | 40155 ft | 470 kts | 254° |
| 2026-05-07 23:01 | 37.01273 | -124.95516 | 40156 ft | 470 kts | 254° |
| 2026-05-07 23:01 | 36.99129 | -125.03171 | 40157 ft | 469 kts | 255° |
| 2026-05-07 23:02 | 36.97049 | -125.10930 | 40161 ft | 471 kts | 255° |
| 2026-05-07 23:02 | 36.94983 | -125.18606 | 40162 ft | 469 kts | 255° |
| 2026-05-07 23:03 | 36.92904 | -125.26297 | 40164 ft | 468 kts | 255° |
| 2026-05-07 23:03 | 36.90808 | -125.34026 | 40166 ft | 469 kts | 255° |
| 2026-05-07 23:04 | 36.88714 | -125.41718 | 40155 ft | 469 kts | 255° |
| 2026-05-07 23:04 | 36.86617 | -125.49398 | 40161 ft | 469 kts | 255° |
| 2026-05-07 23:05 | 36.84518 | -125.57063 | 40159 ft | 469 kts | 256° |
| 2026-05-07 23:05 | 36.82408 | -125.64741 | 40156 ft | 470 kts | 256° |
| 2026-05-07 23:06 | 36.80290 | -125.72430 | 40170 ft | 470 kts | 255° |
| 2026-05-07 23:06 | 36.78171 | -125.80101 | 40167 ft | 470 kts | 255° |
| 2026-05-07 23:07 | 36.76035 | -125.87810 | 40175 ft | 470 kts | 255° |